Aérodrome :
LOGIN :

S'inscrire | Disclaimer

   EN    FR    IT 

 










Légende :    VFR   VFR Marginal   IFR   IFR Intensif   IFR Très Intensif
Visi : 
Plafond : 
>= 8 km
>= 3000ft
5 à 8 km
1000 à 3000 ft
1500m à 5 km
500 à 1000 ft
800 à 1500m
200 à 500 ft
< 800m
< 200 ft
Symboles :   Orages  Brouillard  Fortes neiges  Fortes précipitations  Vent > 20 kt
SIGMETs :   Divers  Orages  Givrage  Turbulence  Onde Orograph.  Cendres Volcan.







- Altitude de l'aérodrome : 49 ft
- Code IATA : AOI


LIPY - Ancona Falconara

DERNIER METAR :
  • 232350Z 22003KT CAVOK 23/17 Q1010

METARs EXPIRÉS :
  • 232250Z VRB02KT CAVOK 25/08 Q1011
  • 232150Z 17003KT CAVOK 26/18 Q1011

TAF TAF LIPY
Valide du 24 à 00h jusqu'au 25 à 00h UTC


232300Z 2400/2424 21008KT CAVOK
BECMG 2407/2409 13012KT
BECMG 2412/2415 23012KT
Pas de NOTAMs connus pour ce terrain.
1 SIGMET publié pour la FIR Milano (LIMM) :
 
Orages noyés dans la masse
LIMM SIGMET 2 VALID 232345/240145 LIMM- LIMM MILANO FIR EMBD TS FCST WI N4404 E00817 - N4424 E00858 - N4400 E00951 - N4336 E01021 - N4310 E00944 - N4348 E00728 - N4404 E00817 TOP FL320 MOV NE NC=



MET'MAP, la Météo Aéronautique d'un coup d'oeil ! - Copyright ORBIFLY Décembre 2007 - Disclaimer

ORBIFLY MET'MAP TEAM :

Programmation & Développement : Alexandra Zaïnal
Conception & Développement : Baudouin d'Aumeries
Co-Programmation & Développement : Marc-Olivier Méhu
Soutien technique & logistique : Manuel Goepfert

Contact : metmap@orbifly.com




SOURCES & CREDITS :

   NOAA